Terminal Aerodrome Forecast
Issued by NWS Missoula, MT

Home | Current Version | Previous Version | Text Only | Print | Product List | Glossary On
Versions: 1 2 3 4 5 6 7 8 9 10 11 12 13 14
000
FTUS45 KMSO 181720
TAFMSO
TAF
KMSO 181720Z 1818/1918 33007KT P6SM BKN060 BKN100
     FM182100 28008KT P6SM VCSH BKN060 OVC100
     FM190300 VRB06KT P6SM SCT100 BKN250
     FM191200 VRB03KT 3SM BR SCT005=

USA.gov is the U.S. government's official web portal to all federal, state and local government web resources and services.